Westgard — PDBQ — position and weather

sailwx.info

Track history (hours):
 
Tides and Currents Weather Stations Pressure Air Temp Water Temp Dewpoint Dewpoint Depression Visibility Wind Speed Wind Dir Waves Ship Positions

Westgard

Last reported at 2014-Aug-12 11:24 UTC. Time now 2014-Aug-20 06:55 UTC.
Position N 57°22' E 017°28'.

Length 89 m; draft 5.4 m.

Type: Ship. MMSI: 246457000.

Date/timePositionNaut miles runAvg speedWind from/ knotsBaromVisibWave heightAir tempDewpointWater temp
2014-Aug-12 11:24N 57°22' E 017°28'1011.8
2014-Aug-12 10:33N 57°13' E 017°19'12010.6
2014-Aug-11 23:14N 55°34' E 015°16'811.2
2014-Aug-11 22:33N 55°30' E 015°04'1111.3
2014-Aug-11 21:33N 55°25' E 014°47'1210.9
2014-Aug-11 20:30N 55°17' E 014°32'1311.2
2014-Aug-11 19:22N 55°08' E 014°17'3111.0
2014-Aug-11 16:33N 54°51' E 013°31'1111.4
2014-Aug-11 15:33N 54°47' E 013°12'1111.3
2014-Aug-11 14:33N 54°43' E 012°54'1111.1
2014-Aug-11 13:33N 54°39' E 012°37'1211.5
2014-Aug-11 12:33N 54°32' E 012°20'1110.9
2014-Aug-11 11:33N 54°25' E 012°06'1211.6
2014-Aug-11 10:33N 54°25' E 011°46'77 8.4
2014-Aug-11 01:24N 54°13' E 009°35'7 8.5
2014-Aug-11 00:32N 54°10' E 009°24'8 7.7
2014-Aug-10 23:33N 54°03' E 009°18'4 4.0
2014-Aug-10 22:33N 53°59' E 009°17'7 7.3
2014-Aug-10 21:33N 53°54' E 009°09'1 1.2
2014-Aug-10 20:33N 53°53' E 009°10'1111.1
2014-Aug-10 19:33N 53°45' E 009°24'1312.6
2014-Aug-10 18:33N 53°35' E 009°37'1212.0
2014-Aug-10 17:33N 53°32' E 009°56'1 1.1
2014-Aug-10 16:33N 53°31' E 009°57'0 0.0
2014-Aug-10 15:33N 53°31' E 009°57'0 0.0
2014-Aug-10 14:33N 53°31' E 009°57'0 0.0
2014-Aug-10 13:33N 53°31' E 009°57'0 0.1
2014-Aug-10 12:33N 53°31' E 009°57'1 1.1
2014-Aug-10 11:33N 53°32' E 009°58'0 0.0
2014-Aug-10 10:33N 53°32' E 009°58'0 0.0
2014-Aug-10 09:33N 53°32' E 009°58'0 0.0
2014-Aug-10 08:33N 53°32' E 009°58'0 0.0
2014-Aug-10 07:33N 53°32' E 009°58'0 0.0
2014-Aug-10 06:33N 53°32' E 009°58'0 0.0
2014-Aug-10 05:33N 53°32' E 009°58'1 1.1
2014-Aug-10 04:33N 53°31' E 009°57'0 0.0
2014-Aug-10 03:33N 53°31' E 009°57'0 0.0
2014-Aug-10 02:33N 53°31' E 009°57'0 0.0
2014-Aug-10 01:33N 53°31' E 009°57'0 0.0
2014-Aug-10 00:33N 53°31' E 009°57'0 0.0
2014-Aug-09 23:33N 53°31' E 009°57'0 0.0
2014-Aug-09 22:33N 53°31' E 009°57'0 0.0
2014-Aug-09 21:33N 53°31' E 009°57'0 0.0
2014-Aug-09 20:33N 53°31' E 009°57'0 0.0
2014-Aug-09 19:33N 53°31' E 009°57'2 1.9
2014-Aug-09 18:33N 53°32' E 009°54'8 8.2
2014-Aug-09 17:33N 53°34' E 009°41'9 9.1
2014-Aug-09 16:33N 53°41' E 009°30'10 9.6
2014-Aug-09 15:33N 53°49' E 009°22'8 7.4
2014-Aug-09 14:28N 53°53' E 009°10'0 0.1
2014-Aug-09 13:31N 53°53' E 009°10'0 0.0
2014-Aug-09 12:33N 53°53' E 009°10'10 9.8
2014-Aug-09 11:34N 53°50' E 008°54'1212.3
2014-Aug-09 10:33N 53°57' E 008°36'1413.6
2014-Aug-09 09:33N 53°60' E 008°14'1211.8
2014-Aug-09 08:33N 53°57' E 007°54'6412.7
2014-Aug-09 03:32N 53°42' E 006°09'1212.0
2014-Aug-09 02:33N 53°38' E 005°50'1111.6
2014-Aug-09 01:33N 53°34' E 005°31'1111.0
2014-Aug-09 00:33N 53°31' E 005°14'1110.6
2014-Aug-08 23:33N 53°27' E 004°57'1110.2
2014-Aug-08 22:32N 53°22' E 004°42'12811.7
2014-Aug-08 11:33N 51°41' E 002°31'1413.6
2014-Aug-08 10:33N 51°31' E 002°17'1313.3
2014-Aug-08 09:33N 51°19' E 002°07'1313.0
2014-Aug-08 08:33N 51°09' E 001°53'5211.8
2014-Aug-08 04:09N 50°29' E 001°02'610.9
2014-Aug-08 03:33N 50°24' E 000°55'1110.8
2014-Aug-08 02:33N 50°15' E 000°45'1110.7
2014-Aug-08 01:33N 50°07' E 000°34'3310.6
2014-Aug-07 22:26N 49°42' E 000°01'1012.0
2014-Aug-07 21:33N 49°31' W 000°02'1010.2
2014-Aug-07 20:33N 49°26' E 000°12'2 1.6
2014-Aug-07 19:30N 49°26' E 000°14'0 0.0
2014-Aug-07 18:33N 49°26' E 000°14'0 0.0
2014-Aug-07 17:33N 49°26' E 000°14'0 0.0
2014-Aug-07 16:30N 49°26' E 000°14'0 0.0
2014-Aug-07 15:33N 49°26' E 000°14'0 0.0
2014-Aug-07 14:33N 49°26' E 000°14'0 0.0
2014-Aug-07 13:30N 49°26' E 000°14'0 0.0
2014-Aug-07 12:30N 49°26' E 000°14'0 0.0
2014-Aug-07 11:24N 49°26' E 000°14'0 0.0
2014-Aug-07 10:33N 49°26' E 000°14'0 0.0
2014-Aug-07 09:33N 49°26' E 000°14'0 0.0
2014-Aug-07 08:33N 49°26' E 000°14'0 0.0
2014-Aug-07 07:33N 49°26' E 000°14'0 0.0
2014-Aug-07 06:33N 49°26' E 000°14'0 0.0
2014-Aug-07 05:33N 49°26' E 000°14'0 0.0
2014-Aug-07 04:30N 49°26' E 000°14'0 0.0
2014-Aug-07 03:30N 49°26' E 000°14'0 0.0
2014-Aug-07 02:33N 49°26' E 000°14'0 0.0
2014-Aug-07 01:32N 49°26' E 000°14'0 0.0
2014-Aug-07 00:32N 49°26' E 000°14'0 0.0
2014-Aug-06 23:20N 49°26' E 000°14'0 0.0
2014-Aug-06 22:32N 49°26' E 000°14'0 0.0
2014-Aug-06 21:32N 49°26' E 000°14'0 0.0
2014-Aug-06 20:29N 49°26' E 000°14'4 4.1
2014-Aug-06 19:34N 49°26' E 000°08'9 9.1
2014-Aug-06 18:33N 49°31' W 000°03'20 9.9
2014-Aug-06 16:32N 49°51' E 000°06'10 9.4
2014-Aug-06 15:25N 49°60' E 000°14'9 9.8
2014-Aug-06 14:27N 50°08' E 000°22'1010.4
2014-Aug-06 13:31N 50°16' E 000°29'1510.5
2014-Aug-06 12:04N 50°31' E 000°33'611.2
2014-Aug-06 11:34N 50°35' E 000°40'1211.0
2014-Aug-06 10:30N 50°42' E 000°54'29 9.6
2014-Aug-06 07:27N 51°02' E 001°28'8 8.5
2014-Aug-06 06:33N 51°08' E 001°36'9 9.3
2014-Aug-06 05:33N 51°15' E 001°46'1110.6
2014-Aug-06 04:33N 51°24' E 001°55'1211.7
2014-Aug-06 03:33N 51°33' E 002°07'1212.1
2014-Aug-06 02:33N 51°42' E 002°20'1211.8
2014-Aug-06 01:33N 51°51' E 002°32'6410.3
2014-Aug-05 19:19N 52°42' E 003°36'5411.2
2014-Aug-05 14:29N 53°23' E 004°35'9 9.7
2014-Aug-05 13:33N 53°29' E 004°45'10 9.7
2014-Aug-05 12:31N 53°33' E 005°01'9 9.6
2014-Aug-05 11:33N 53°36' E 005°16'10 9.8
2014-Aug-05 10:33N 53°39' E 005°31'7811.1
2014-Aug-05 03:33N 54°01' E 007°38'1010.1
2014-Aug-05 02:34N 54°01' E 007°55'10 9.8
2014-Aug-05 01:33N 54°00' E 008°12'10 9.5
2014-Aug-05 00:33N 53°59' E 008°28'1111.6
2014-Aug-04 23:33N 53°52' E 008°44'1312.6
2014-Aug-04 22:33N 53°53' E 009°05'3 2.9
2014-Aug-04 21:33N 53°54' E 009°09'1 1.1
2014-Aug-04 20:31N 53°55' E 009°11'0 0.0
2014-Aug-04 19:28N 53°55' E 009°11'3 2.9
2014-Aug-04 18:33N 53°57' E 009°14'6 6.2
2014-Aug-04 17:32N 54°03' E 009°18'91 5.9
2014-Aug-04 02:16N 54°27' E 011°48'810.5
2014-Aug-04 01:31N 54°27' E 012°01'9 9.2
2014-Aug-04 00:33N 54°33' E 012°13'1010.1
2014-Aug-03 23:32N 54°40' E 012°24'1110.8
2014-Aug-03 22:33N 54°46' E 012°39'1110.4
2014-Aug-03 21:29N 54°51' E 012°57'1010.5
2014-Aug-03 20:31N 54°53' E 013°14'1111.0
2014-Aug-03 19:31N 54°57' E 013°32'8510.6
2014-Aug-03 11:33N 55°46' E 015°34'1111.0
2014-Aug-03 10:32N 55°51' E 015°52'1111.0
2014-Aug-03 09:33N 55°56' E 016°08'1111.1
2014-Aug-03 08:33N 56°02' E 016°25'1111.0
2014-Aug-03 07:33N 56°08' E 016°42'1010.5
2014-Aug-03 06:33N 56°18' E 016°49'1111.0
2014-Aug-03 05:33N 56°28' E 016°57'1110.7
2014-Aug-03 04:33N 56°38' E 017°04'1010.4
2014-Aug-03 03:33N 56°47' E 017°11'1010.5
2014-Aug-03 02:33N 56°57' E 017°19'1010.4
2014-Aug-03 01:33N 57°07' E 017°26'1010.5
2014-Aug-03 00:33N 57°16' E 017°33'1110.6
2014-Aug-02 23:33N 57°26' E 017°41'  
Track history (hours):
 
Tides and Currents Weather Stations Pressure Air Temp Water Temp Dewpoint Dewpoint Depression Visibility Wind Speed Wind Dir Waves Ship Positions

Westgard

Last reported at 2014-Aug-12 11:24 UTC. Time now 2014-Aug-20 06:55 UTC.
Position N 57°22' E 017°28'.

Length 89 m; draft 5.4 m.

Type: Ship. MMSI: 246457000.

Date/timePositionNaut miles runAvg speedWind from/ knotsBaromVisibWave heightAir tempDewpointWater temp
2014-Aug-12 11:24N 57°22' E 017°28'1011.8
2014-Aug-12 10:33N 57°13' E 017°19'12010.6
2014-Aug-11 23:14N 55°34' E 015°16'811.2
2014-Aug-11 22:33N 55°30' E 015°04'1111.3
2014-Aug-11 21:33N 55°25' E 014°47'1210.9
2014-Aug-11 20:30N 55°17' E 014°32'1311.2
2014-Aug-11 19:22N 55°08' E 014°17'3111.0
2014-Aug-11 16:33N 54°51' E 013°31'1111.4
2014-Aug-11 15:33N 54°47' E 013°12'1111.3
2014-Aug-11 14:33N 54°43' E 012°54'1111.1
2014-Aug-11 13:33N 54°39' E 012°37'1211.5
2014-Aug-11 12:33N 54°32' E 012°20'1110.9
2014-Aug-11 11:33N 54°25' E 012°06'1211.6
2014-Aug-11 10:33N 54°25' E 011°46'77 8.4
2014-Aug-11 01:24N 54°13' E 009°35'7 8.5
2014-Aug-11 00:32N 54°10' E 009°24'8 7.7
2014-Aug-10 23:33N 54°03' E 009°18'4 4.0
2014-Aug-10 22:33N 53°59' E 009°17'7 7.3
2014-Aug-10 21:33N 53°54' E 009°09'1 1.2
2014-Aug-10 20:33N 53°53' E 009°10'1111.1
2014-Aug-10 19:33N 53°45' E 009°24'1312.6
2014-Aug-10 18:33N 53°35' E 009°37'1212.0
2014-Aug-10 17:33N 53°32' E 009°56'1 1.1
2014-Aug-10 16:33N 53°31' E 009°57'0 0.0
2014-Aug-10 15:33N 53°31' E 009°57'0 0.0
2014-Aug-10 14:33N 53°31' E 009°57'0 0.0
2014-Aug-10 13:33N 53°31' E 009°57'0 0.1
2014-Aug-10 12:33N 53°31' E 009°57'1 1.1
2014-Aug-10 11:33N 53°32' E 009°58'0 0.0
2014-Aug-10 10:33N 53°32' E 009°58'0 0.0
2014-Aug-10 09:33N 53°32' E 009°58'0 0.0
2014-Aug-10 08:33N 53°32' E 009°58'0 0.0
2014-Aug-10 07:33N 53°32' E 009°58'0 0.0
2014-Aug-10 06:33N 53°32' E 009°58'0 0.0
2014-Aug-10 05:33N 53°32' E 009°58'1 1.1
2014-Aug-10 04:33N 53°31' E 009°57'0 0.0
2014-Aug-10 03:33N 53°31' E 009°57'0 0.0
2014-Aug-10 02:33N 53°31' E 009°57'0 0.0
2014-Aug-10 01:33N 53°31' E 009°57'0 0.0
2014-Aug-10 00:33N 53°31' E 009°57'0 0.0
2014-Aug-09 23:33N 53°31' E 009°57'0 0.0
2014-Aug-09 22:33N 53°31' E 009°57'0 0.0
2014-Aug-09 21:33N 53°31' E 009°57'0 0.0
2014-Aug-09 20:33N 53°31' E 009°57'0 0.0
2014-Aug-09 19:33N 53°31' E 009°57'2 1.9
2014-Aug-09 18:33N 53°32' E 009°54'8 8.2
2014-Aug-09 17:33N 53°34' E 009°41'9 9.1
2014-Aug-09 16:33N 53°41' E 009°30'10 9.6
2014-Aug-09 15:33N 53°49' E 009°22'8 7.4
2014-Aug-09 14:28N 53°53' E 009°10'0 0.1
2014-Aug-09 13:31N 53°53' E 009°10'0 0.0
2014-Aug-09 12:33N 53°53' E 009°10'10 9.8
2014-Aug-09 11:34N 53°50' E 008°54'1212.3
2014-Aug-09 10:33N 53°57' E 008°36'1413.6
2014-Aug-09 09:33N 53°60' E 008°14'1211.8
2014-Aug-09 08:33N 53°57' E 007°54'6412.7
2014-Aug-09 03:32N 53°42' E 006°09'1212.0
2014-Aug-09 02:33N 53°38' E 005°50'1111.6
2014-Aug-09 01:33N 53°34' E 005°31'1111.0
2014-Aug-09 00:33N 53°31' E 005°14'1110.6
2014-Aug-08 23:33N 53°27' E 004°57'1110.2
2014-Aug-08 22:32N 53°22' E 004°42'12811.7
2014-Aug-08 11:33N 51°41' E 002°31'1413.6
2014-Aug-08 10:33N 51°31' E 002°17'1313.3
2014-Aug-08 09:33N 51°19' E 002°07'1313.0
2014-Aug-08 08:33N 51°09' E 001°53'5211.8
2014-Aug-08 04:09N 50°29' E 001°02'610.9
2014-Aug-08 03:33N 50°24' E 000°55'1110.8
2014-Aug-08 02:33N 50°15' E 000°45'1110.7
2014-Aug-08 01:33N 50°07' E 000°34'3310.6
2014-Aug-07 22:26N 49°42' E 000°01'1012.0
2014-Aug-07 21:33N 49°31' W 000°02'1010.2
2014-Aug-07 20:33N 49°26' E 000°12'2 1.6
2014-Aug-07 19:30N 49°26' E 000°14'0 0.0
2014-Aug-07 18:33N 49°26' E 000°14'0 0.0
2014-Aug-07 17:33N 49°26' E 000°14'0 0.0
2014-Aug-07 16:30N 49°26' E 000°14'0 0.0
2014-Aug-07 15:33N 49°26' E 000°14'0 0.0
2014-Aug-07 14:33N 49°26' E 000°14'0 0.0
2014-Aug-07 13:30N 49°26' E 000°14'0 0.0
2014-Aug-07 12:30N 49°26' E 000°14'0 0.0
2014-Aug-07 11:24N 49°26' E 000°14'0 0.0
2014-Aug-07 10:33N 49°26' E 000°14'0 0.0
2014-Aug-07 09:33N 49°26' E 000°14'0 0.0
2014-Aug-07 08:33N 49°26' E 000°14'0 0.0
2014-Aug-07 07:33N 49°26' E 000°14'0 0.0
2014-Aug-07 06:33N 49°26' E 000°14'0 0.0
2014-Aug-07 05:33N 49°26' E 000°14'0 0.0
2014-Aug-07 04:30N 49°26' E 000°14'0 0.0
2014-Aug-07 03:30N 49°26' E 000°14'0 0.0
2014-Aug-07 02:33N 49°26' E 000°14'0 0.0
2014-Aug-07 01:32N 49°26' E 000°14'0 0.0
2014-Aug-07 00:32N 49°26' E 000°14'0 0.0
2014-Aug-06 23:20N 49°26' E 000°14'0 0.0
2014-Aug-06 22:32N 49°26' E 000°14'0 0.0
2014-Aug-06 21:32N 49°26' E 000°14'0 0.0
2014-Aug-06 20:29N 49°26' E 000°14'4 4.1
2014-Aug-06 19:34N 49°26' E 000°08'9 9.1
2014-Aug-06 18:33N 49°31' W 000°03'20 9.9
2014-Aug-06 16:32N 49°51' E 000°06'10 9.4
2014-Aug-06 15:25N 49°60' E 000°14'9 9.8
2014-Aug-06 14:27N 50°08' E 000°22'1010.4
2014-Aug-06 13:31N 50°16' E 000°29'1510.5
2014-Aug-06 12:04N 50°31' E 000°33'611.2
2014-Aug-06 11:34N 50°35' E 000°40'1211.0
2014-Aug-06 10:30N 50°42' E 000°54'29 9.6
2014-Aug-06 07:27N 51°02' E 001°28'8 8.5
2014-Aug-06 06:33N 51°08' E 001°36'9 9.3
2014-Aug-06 05:33N 51°15' E 001°46'1110.6
2014-Aug-06 04:33N 51°24' E 001°55'1211.7
2014-Aug-06 03:33N 51°33' E 002°07'1212.1
2014-Aug-06 02:33N 51°42' E 002°20'1211.8
2014-Aug-06 01:33N 51°51' E 002°32'6410.3
2014-Aug-05 19:19N 52°42' E 003°36'5411.2
2014-Aug-05 14:29N 53°23' E 004°35'9 9.7
2014-Aug-05 13:33N 53°29' E 004°45'10 9.7
2014-Aug-05 12:31N 53°33' E 005°01'9 9.6
2014-Aug-05 11:33N 53°36' E 005°16'10 9.8
2014-Aug-05 10:33N 53°39' E 005°31'7811.1
2014-Aug-05 03:33N 54°01' E 007°38'1010.1
2014-Aug-05 02:34N 54°01' E 007°55'10 9.8
2014-Aug-05 01:33N 54°00' E 008°12'10 9.5
2014-Aug-05 00:33N 53°59' E 008°28'1111.6
2014-Aug-04 23:33N 53°52' E 008°44'1312.6
2014-Aug-04 22:33N 53°53' E 009°05'3 2.9
2014-Aug-04 21:33N 53°54' E 009°09'1 1.1
2014-Aug-04 20:31N 53°55' E 009°11'0 0.0
2014-Aug-04 19:28N 53°55' E 009°11'3 2.9
2014-Aug-04 18:33N 53°57' E 009°14'6 6.2
2014-Aug-04 17:32N 54°03' E 009°18'91 5.9
2014-Aug-04 02:16N 54°27' E 011°48'810.5
2014-Aug-04 01:31N 54°27' E 012°01'9 9.2
2014-Aug-04 00:33N 54°33' E 012°13'1010.1
2014-Aug-03 23:32N 54°40' E 012°24'1110.8
2014-Aug-03 22:33N 54°46' E 012°39'1110.4
2014-Aug-03 21:29N 54°51' E 012°57'1010.5
2014-Aug-03 20:31N 54°53' E 013°14'1111.0
2014-Aug-03 19:31N 54°57' E 013°32'8510.6
2014-Aug-03 11:33N 55°46' E 015°34'1111.0
2014-Aug-03 10:32N 55°51' E 015°52'1111.0
2014-Aug-03 09:33N 55°56' E 016°08'1111.1
2014-Aug-03 08:33N 56°02' E 016°25'1111.0
2014-Aug-03 07:33N 56°08' E 016°42'1010.5
2014-Aug-03 06:33N 56°18' E 016°49'1111.0
2014-Aug-03 05:33N 56°28' E 016°57'1110.7
2014-Aug-03 04:33N 56°38' E 017°04'1010.4
2014-Aug-03 03:33N 56°47' E 017°11'1010.5
2014-Aug-03 02:33N 56°57' E 017°19'1010.4
2014-Aug-03 01:33N 57°07' E 017°26'1010.5
2014-Aug-03 00:33N 57°16' E 017°33'1110.6
2014-Aug-02 23:33N 57°26' E 017°41'  

Dump ship's entire track history